sensor_id;sensor_type;location;lat;lon;timestamp;P1;durP1;ratioP1;P2;durP2;ratioP2
38130;SDS011;23947;51.894;4.622;2023-03-04T00:02:20;15.50;;;1.45;;
38130;SDS011;23947;51.894;4.622;2023-03-04T00:04:46;21.17;;;1.85;;
38130;SDS011;23947;51.894;4.622;2023-03-04T00:07:12;16.77;;;1.88;;
38130;SDS011;23947;51.894;4.622;2023-03-04T00:09:41;22.42;;;3.13;;
38130;SDS011;23947;51.894;4.622;2023-03-04T00:12:10;16.35;;;1.70;;
38130;SDS011;23947;51.894;4.622;2023-03-04T00:14:36;25.38;;;1.95;;
38130;SDS011;23947;51.894;4.622;2023-03-04T00:17:02;24.98;;;1.80;;
38130;SDS011;23947;51.894;4.622;2023-03-04T00:19:29;13.68;;;1.38;;
38130;SDS011;23947;51.894;4.622;2023-03-04T00:21:55;15.20;;;1.35;;
38130;SDS011;23947;51.894;4.622;2023-03-04T00:24:21;22.17;;;1.83;;
38130;SDS011;23947;51.894;4.622;2023-03-04T00:26:48;16.52;;;2.00;;
38130;SDS011;23947;51.894;4.622;2023-03-04T00:29:14;22.50;;;2.22;;
38130;SDS011;23947;51.894;4.622;2023-03-04T00:31:40;17.77;;;1.58;;
38130;SDS011;23947;51.894;4.622;2023-03-04T00:34:06;17.65;;;1.48;;
38130;SDS011;23947;51.894;4.622;2023-03-04T00:36:31;22.55;;;2.78;;
38130;SDS011;23947;51.894;4.622;2023-03-04T00:38:57;17.65;;;1.67;;
38130;SDS011;23947;51.894;4.622;2023-03-04T00:41:22;20.25;;;1.83;;
38130;SDS011;23947;51.894;4.622;2023-03-04T00:43:48;28.27;;;2.17;;
38130;SDS011;23947;51.894;4.622;2023-03-04T00:46:14;19.25;;;1.58;;
38130;SDS011;23947;51.894;4.622;2023-03-04T00:48:39;17.23;;;1.58;;
38130;SDS011;23947;51.894;4.622;2023-03-04T00:51:05;27.08;;;2.63;;
38130;SDS011;23947;51.894;4.622;2023-03-04T00:53:31;18.17;;;1.88;;
38130;SDS011;23947;51.894;4.622;2023-03-04T00:55:56;17.23;;;1.60;;
38130;SDS011;23947;51.894;4.622;2023-03-04T00:58:22;18.75;;;2.03;;
38130;SDS011;23947;51.894;4.622;2023-03-04T01:00:47;25.02;;;2.65;;
38130;SDS011;23947;51.894;4.622;2023-03-04T01:03:13;20.73;;;2.75;;
38130;SDS011;23947;51.894;4.622;2023-03-04T01:05:39;18.90;;;2.15;;
38130;SDS011;23947;51.894;4.622;2023-03-04T01:08:04;19.40;;;1.90;;
38130;SDS011;23947;51.894;4.622;2023-03-04T01:10:30;23.08;;;2.53;;
38130;SDS011;23947;51.894;4.622;2023-03-04T01:12:56;16.05;;;3.08;;
38130;SDS011;23947;51.894;4.622;2023-03-04T01:15:22;21.10;;;2.42;;
38130;SDS011;23947;51.894;4.622;2023-03-04T01:17:48;27.02;;;3.17;;
38130;SDS011;23947;51.894;4.622;2023-03-04T01:20:13;19.30;;;2.28;;
38130;SDS011;23947;51.894;4.622;2023-03-04T01:22:40;24.27;;;3.25;;
38130;SDS011;23947;51.894;4.622;2023-03-04T01:25:06;22.15;;;3.08;;
38130;SDS011;23947;51.894;4.622;2023-03-04T01:27:32;16.10;;;3.25;;
38130;SDS011;23947;51.894;4.622;2023-03-04T01:29:57;19.50;;;2.78;;
38130;SDS011;23947;51.894;4.622;2023-03-04T01:32:23;20.65;;;3.28;;
38130;SDS011;23947;51.894;4.622;2023-03-04T01:34:49;18.95;;;3.88;;
38130;SDS011;23947;51.894;4.622;2023-03-04T01:37:14;34.28;;;4.60;;
38130;SDS011;23947;51.894;4.622;2023-03-04T01:39:40;18.80;;;2.97;;
38130;SDS011;23947;51.894;4.622;2023-03-04T01:42:06;18.60;;;3.85;;
38130;SDS011;23947;51.894;4.622;2023-03-04T01:44:42;21.77;;;3.38;;
38130;SDS011;23947;51.894;4.622;2023-03-04T01:47:09;25.98;;;3.42;;
38130;SDS011;23947;51.894;4.622;2023-03-04T01:49:34;22.02;;;3.25;;
38130;SDS011;23947;51.894;4.622;2023-03-04T01:52:00;20.00;;;2.25;;
38130;SDS011;23947;51.894;4.622;2023-03-04T01:54:26;29.48;;;3.45;;
38130;SDS011;23947;51.894;4.622;2023-03-04T01:56:51;18.77;;;2.33;;
38130;SDS011;23947;51.894;4.622;2023-03-04T01:59:18;24.63;;;2.90;;
38130;SDS011;23947;51.894;4.622;2023-03-04T02:01:50;25.67;;;2.45;;
38130;SDS011;23947;51.894;4.622;2023-03-04T02:04:19;21.42;;;2.58;;
38130;SDS011;23947;51.894;4.622;2023-03-04T02:06:47;20.25;;;2.80;;
38130;SDS011;23947;51.894;4.622;2023-03-04T02:09:14;15.13;;;2.38;;
38130;SDS011;23947;51.894;4.622;2023-03-04T02:11:41;20.25;;;2.47;;
38130;SDS011;23947;51.894;4.622;2023-03-04T02:14:08;20.83;;;2.40;;
38130;SDS011;23947;51.894;4.622;2023-03-04T02:16:35;20.20;;;2.45;;
38130;SDS011;23947;51.894;4.622;2023-03-04T02:19:01;15.85;;;2.13;;
38130;SDS011;23947;51.894;4.622;2023-03-04T02:21:32;26.80;;;3.15;;
38130;SDS011;23947;51.894;4.622;2023-03-04T02:26:39;17.98;;;1.95;;
38130;SDS011;23947;51.894;4.622;2023-03-04T02:29:08;19.45;;;1.90;;
38130;SDS011;23947;51.894;4.622;2023-03-04T02:31:36;14.88;;;1.95;;
38130;SDS011;23947;51.894;4.622;2023-03-04T02:34:05;12.90;;;1.75;;
38130;SDS011;23947;51.894;4.622;2023-03-04T02:36:35;14.35;;;1.83;;
38130;SDS011;23947;51.894;4.622;2023-03-04T02:39:03;14.85;;;2.05;;
38130;SDS011;23947;51.894;4.622;2023-03-04T02:41:31;15.27;;;2.03;;
38130;SDS011;23947;51.894;4.622;2023-03-04T02:43:57;14.30;;;1.23;;
38130;SDS011;23947;51.894;4.622;2023-03-04T02:46:23;16.45;;;1.50;;
38130;SDS011;23947;51.894;4.622;2023-03-04T02:48:49;14.55;;;1.60;;
38130;SDS011;23947;51.894;4.622;2023-03-04T02:51:16;17.23;;;1.08;;
38130;SDS011;23947;51.894;4.622;2023-03-04T02:53:42;12.35;;;0.90;;
38130;SDS011;23947;51.894;4.622;2023-03-04T02:56:07;16.20;;;1.20;;
38130;SDS011;23947;51.894;4.622;2023-03-04T02:58:33;15.77;;;0.80;;
38130;SDS011;23947;51.894;4.622;2023-03-04T03:00:59;15.43;;;1.48;;
38130;SDS011;23947;51.894;4.622;2023-03-04T03:03:25;12.98;;;1.20;;
38130;SDS011;23947;51.894;4.622;2023-03-04T03:05:51;10.52;;;1.27;;
38130;SDS011;23947;51.894;4.622;2023-03-04T03:08:18;14.75;;;1.13;;
38130;SDS011;23947;51.894;4.622;2023-03-04T03:10:43;14.55;;;1.08;;
38130;SDS011;23947;51.894;4.622;2023-03-04T03:13:09;16.95;;;1.23;;
38130;SDS011;23947;51.894;4.622;2023-03-04T03:15:35;13.32;;;1.15;;
38130;SDS011;23947;51.894;4.622;2023-03-04T03:18:06;14.88;;;1.08;;
38130;SDS011;23947;51.894;4.622;2023-03-04T03:20:33;14.65;;;0.95;;
38130;SDS011;23947;51.894;4.622;2023-03-04T03:22:58;13.23;;;1.48;;
38130;SDS011;23947;51.894;4.622;2023-03-04T03:25:24;16.33;;;0.93;;
38130;SDS011;23947;51.894;4.622;2023-03-04T03:27:50;18.75;;;0.77;;
38130;SDS011;23947;51.894;4.622;2023-03-04T03:30:15;11.75;;;0.68;;
38130;SDS011;23947;51.894;4.622;2023-03-04T03:32:41;11.27;;;0.80;;
38130;SDS011;23947;51.894;4.622;2023-03-04T03:35:07;17.77;;;1.60;;
38130;SDS011;23947;51.894;4.622;2023-03-04T03:37:33;13.85;;;1.08;;
38130;SDS011;23947;51.894;4.622;2023-03-04T03:39:58;15.90;;;0.77;;
38130;SDS011;23947;51.894;4.622;2023-03-04T03:42:24;20.33;;;1.52;;
38130;SDS011;23947;51.894;4.622;2023-03-04T03:44:49;12.25;;;0.80;;
38130;SDS011;23947;51.894;4.622;2023-03-04T03:47:15;20.33;;;1.58;;
38130;SDS011;23947;51.894;4.622;2023-03-04T03:49:41;16.50;;;1.00;;
38130;SDS011;23947;51.894;4.622;2023-03-04T03:52:06;15.98;;;1.33;;
38130;SDS011;23947;51.894;4.622;2023-03-04T03:54:33;16.48;;;0.93;;
38130;SDS011;23947;51.894;4.622;2023-03-04T03:56:58;12.05;;;0.70;;
38130;SDS011;23947;51.894;4.622;2023-03-04T03:59:24;12.80;;;1.08;;
38130;SDS011;23947;51.894;4.622;2023-03-04T04:01:50;10.05;;;0.98;;
38130;SDS011;23947;51.894;4.622;2023-03-04T04:04:15;12.65;;;0.88;;
38130;SDS011;23947;51.894;4.622;2023-03-04T04:06:41;14.73;;;1.08;;
38130;SDS011;23947;51.894;4.622;2023-03-04T04:09:06;12.40;;;1.20;;
38130;SDS011;23947;51.894;4.622;2023-03-04T04:11:32;15.65;;;1.73;;
38130;SDS011;23947;51.894;4.622;2023-03-04T04:13:58;15.02;;;1.10;;
38130;SDS011;23947;51.894;4.622;2023-03-04T04:16:23;19.10;;;1.90;;
38130;SDS011;23947;51.894;4.622;2023-03-04T04:18:49;12.15;;;0.90;;
38130;SDS011;23947;51.894;4.622;2023-03-04T04:21:15;12.45;;;0.80;;
38130;SDS011;23947;51.894;4.622;2023-03-04T04:23:40;10.88;;;0.90;;
38130;SDS011;23947;51.894;4.622;2023-03-04T04:26:06;19.67;;;1.60;;
38130;SDS011;23947;51.894;4.622;2023-03-04T04:28:32;19.38;;;1.70;;
38130;SDS011;23947;51.894;4.622;2023-03-04T04:30:58;17.20;;;1.00;;
38130;SDS011;23947;51.894;4.622;2023-03-04T04:33:24;11.57;;;0.90;;
38130;SDS011;23947;51.894;4.622;2023-03-04T04:35:49;12.00;;;1.02;;
38130;SDS011;23947;51.894;4.622;2023-03-04T04:38:15;13.63;;;0.80;;
38130;SDS011;23947;51.894;4.622;2023-03-04T04:40:41;7.65;;;0.90;;
38130;SDS011;23947;51.894;4.622;2023-03-04T04:43:07;11.75;;;1.02;;
38130;SDS011;23947;51.894;4.622;2023-03-04T04:45:33;19.90;;;1.45;;
38130;SDS011;23947;51.894;4.622;2023-03-04T04:47:59;17.10;;;1.17;;
38130;SDS011;23947;51.894;4.622;2023-03-04T04:50:24;10.68;;;0.60;;
38130;SDS011;23947;51.894;4.622;2023-03-04T04:52:51;11.40;;;0.90;;
38130;SDS011;23947;51.894;4.622;2023-03-04T04:55:17;13.70;;;1.05;;
38130;SDS011;23947;51.894;4.622;2023-03-04T04:57:43;11.93;;;1.02;;
38130;SDS011;23947;51.894;4.622;2023-03-04T05:00:09;12.80;;;1.00;;
38130;SDS011;23947;51.894;4.622;2023-03-04T05:02:35;14.27;;;0.85;;
38130;SDS011;23947;51.894;4.622;2023-03-04T05:05:02;14.25;;;1.02;;
38130;SDS011;23947;51.894;4.622;2023-03-04T05:07:28;13.00;;;1.90;;
38130;SDS011;23947;51.894;4.622;2023-03-04T05:09:54;14.90;;;0.93;;
38130;SDS011;23947;51.894;4.622;2023-03-04T05:12:20;21.75;;;1.98;;
38130;SDS011;23947;51.894;4.622;2023-03-04T05:14:45;7.68;;;0.77;;
38130;SDS011;23947;51.894;4.622;2023-03-04T05:17:11;12.73;;;0.82;;
38130;SDS011;23947;51.894;4.622;2023-03-04T05:19:37;11.30;;;0.60;;
38130;SDS011;23947;51.894;4.622;2023-03-04T05:22:02;11.55;;;0.85;;
38130;SDS011;23947;51.894;4.622;2023-03-04T05:24:28;14.40;;;1.05;;
38130;SDS011;23947;51.894;4.622;2023-03-04T05:26:53;10.50;;;0.73;;
38130;SDS011;23947;51.894;4.622;2023-03-04T05:29:19;17.27;;;0.85;;
38130;SDS011;23947;51.894;4.622;2023-03-04T05:31:45;8.57;;;0.80;;
38130;SDS011;23947;51.894;4.622;2023-03-04T05:34:10;13.88;;;1.10;;
38130;SDS011;23947;51.894;4.622;2023-03-04T05:36:36;8.98;;;0.95;;
38130;SDS011;23947;51.894;4.622;2023-03-04T05:39:02;9.95;;;0.60;;
38130;SDS011;23947;51.894;4.622;2023-03-04T05:41:27;11.68;;;0.60;;
38130;SDS011;23947;51.894;4.622;2023-03-04T05:43:53;16.23;;;1.20;;
38130;SDS011;23947;51.894;4.622;2023-03-04T05:46:20;12.10;;;0.90;;
38130;SDS011;23947;51.894;4.622;2023-03-04T05:48:49;18.85;;;1.65;;
38130;SDS011;23947;51.894;4.622;2023-03-04T05:51:16;11.25;;;0.80;;
38130;SDS011;23947;51.894;4.622;2023-03-04T05:53:42;12.32;;;0.70;;
38130;SDS011;23947;51.894;4.622;2023-03-04T05:56:09;13.30;;;1.10;;
38130;SDS011;23947;51.894;4.622;2023-03-04T05:58:37;13.98;;;0.73;;
38130;SDS011;23947;51.894;4.622;2023-03-04T06:01:03;19.10;;;0.80;;
38130;SDS011;23947;51.894;4.622;2023-03-04T06:03:29;13.18;;;0.77;;
38130;SDS011;23947;51.894;4.622;2023-03-04T06:05:55;21.30;;;1.58;;
38130;SDS011;23947;51.894;4.622;2023-03-04T06:08:21;11.35;;;1.00;;
38130;SDS011;23947;51.894;4.622;2023-03-04T06:10:48;15.05;;;0.70;;
38130;SDS011;23947;51.894;4.622;2023-03-04T06:13:17;13.13;;;0.93;;
38130;SDS011;23947;51.894;4.622;2023-03-04T06:15:43;12.82;;;0.80;;
38130;SDS011;23947;51.894;4.622;2023-03-04T06:18:08;18.08;;;1.08;;
38130;SDS011;23947;51.894;4.622;2023-03-04T06:20:34;18.00;;;1.60;;
38130;SDS011;23947;51.894;4.622;2023-03-04T06:23:00;17.73;;;1.23;;
38130;SDS011;23947;51.894;4.622;2023-03-04T06:25:26;13.30;;;0.98;;
38130;SDS011;23947;51.894;4.622;2023-03-04T06:27:52;14.85;;;1.10;;
38130;SDS011;23947;51.894;4.622;2023-03-04T06:30:18;20.73;;;1.52;;
38130;SDS011;23947;51.894;4.622;2023-03-04T06:32:44;14.90;;;1.10;;
38130;SDS011;23947;51.894;4.622;2023-03-04T06:35:11;14.75;;;0.90;;
38130;SDS011;23947;51.894;4.622;2023-03-04T06:37:37;12.27;;;1.35;;
38130;SDS011;23947;51.894;4.622;2023-03-04T06:40:03;10.30;;;0.70;;
38130;SDS011;23947;51.894;4.622;2023-03-04T06:42:30;11.27;;;1.10;;
38130;SDS011;23947;51.894;4.622;2023-03-04T06:44:55;13.27;;;0.80;;
38130;SDS011;23947;51.894;4.622;2023-03-04T06:47:21;15.00;;;0.90;;
38130;SDS011;23947;51.894;4.622;2023-03-04T06:49:47;11.73;;;0.70;;
38130;SDS011;23947;51.894;4.622;2023-03-04T06:52:12;10.40;;;0.70;;
38130;SDS011;23947;51.894;4.622;2023-03-04T06:54:38;15.10;;;0.77;;
38130;SDS011;23947;51.894;4.622;2023-03-04T06:57:04;12.40;;;0.90;;
38130;SDS011;23947;51.894;4.622;2023-03-04T06:59:30;18.33;;;0.80;;
38130;SDS011;23947;51.894;4.622;2023-03-04T07:01:56;15.00;;;1.10;;
38130;SDS011;23947;51.894;4.622;2023-03-04T07:04:21;14.00;;;0.80;;
38130;SDS011;23947;51.894;4.622;2023-03-04T07:06:48;11.45;;;0.80;;
38130;SDS011;23947;51.894;4.622;2023-03-04T07:09:13;18.10;;;1.63;;
38130;SDS011;23947;51.894;4.622;2023-03-04T07:11:39;13.82;;;0.80;;
38130;SDS011;23947;51.894;4.622;2023-03-04T07:14:05;18.25;;;1.05;;
38130;SDS011;23947;51.894;4.622;2023-03-04T07:16:31;15.43;;;1.10;;
38130;SDS011;23947;51.894;4.622;2023-03-04T07:18:57;13.23;;;1.17;;
38130;SDS011;23947;51.894;4.622;2023-03-04T07:21:22;14.10;;;1.08;;
38130;SDS011;23947;51.894;4.622;2023-03-04T07:23:48;17.27;;;1.08;;
38130;SDS011;23947;51.894;4.622;2023-03-04T07:26:14;16.67;;;1.02;;
38130;SDS011;23947;51.894;4.622;2023-03-04T07:28:40;13.82;;;1.70;;
38130;SDS011;23947;51.894;4.622;2023-03-04T07:31:08;19.10;;;1.73;;
38130;SDS011;23947;51.894;4.622;2023-03-04T07:33:35;11.75;;;1.05;;
38130;SDS011;23947;51.894;4.622;2023-03-04T07:36:00;11.10;;;0.70;;
38130;SDS011;23947;51.894;4.622;2023-03-04T07:38:26;11.88;;;0.80;;
38130;SDS011;23947;51.894;4.622;2023-03-04T07:40:55;14.40;;;0.77;;
38130;SDS011;23947;51.894;4.622;2023-03-04T07:43:22;9.55;;;0.90;;
38130;SDS011;23947;51.894;4.622;2023-03-04T07:45:47;11.55;;;1.05;;
38130;SDS011;23947;51.894;4.622;2023-03-04T07:48:13;15.18;;;1.60;;
38130;SDS011;23947;51.894;4.622;2023-03-04T07:50:38;12.18;;;0.70;;
38130;SDS011;23947;51.894;4.622;2023-03-04T07:53:04;9.05;;;1.10;;
38130;SDS011;23947;51.894;4.622;2023-03-04T07:55:30;7.93;;;0.68;;
38130;SDS011;23947;51.894;4.622;2023-03-04T07:57:55;7.13;;;0.77;;
38130;SDS011;23947;51.894;4.622;2023-03-04T08:00:21;11.48;;;0.52;;
38130;SDS011;23947;51.894;4.622;2023-03-04T08:02:47;7.72;;;0.95;;
38130;SDS011;23947;51.894;4.622;2023-03-04T08:05:13;5.25;;;0.70;;
38130;SDS011;23947;51.894;4.622;2023-03-04T08:07:39;3.80;;;0.40;;
38130;SDS011;23947;51.894;4.622;2023-03-04T08:10:05;6.82;;;0.40;;
38130;SDS011;23947;51.894;4.622;2023-03-04T08:12:32;8.18;;;1.38;;
38130;SDS011;23947;51.894;4.622;2023-03-04T08:14:59;11.93;;;0.68;;
38130;SDS011;23947;51.894;4.622;2023-03-04T08:17:24;5.60;;;0.20;;
38130;SDS011;23947;51.894;4.622;2023-03-04T08:19:50;1.83;;;0.30;;
38130;SDS011;23947;51.894;4.622;2023-03-04T08:22:16;3.03;;;0.20;;
38130;SDS011;23947;51.894;4.622;2023-03-04T08:24:41;8.05;;;0.50;;
38130;SDS011;23947;51.894;4.622;2023-03-04T08:27:07;2.03;;;0.35;;
38130;SDS011;23947;51.894;4.622;2023-03-04T08:29:33;6.22;;;0.40;;
38130;SDS011;23947;51.894;4.622;2023-03-04T08:31:59;5.03;;;0.30;;
38130;SDS011;23947;51.894;4.622;2023-03-04T08:34:25;6.25;;;0.85;;
38130;SDS011;23947;51.894;4.622;2023-03-04T08:36:52;5.88;;;0.40;;
38130;SDS011;23947;51.894;4.622;2023-03-04T08:39:18;7.45;;;0.73;;
38130;SDS011;23947;51.894;4.622;2023-03-04T08:41:45;5.65;;;1.30;;
38130;SDS011;23947;51.894;4.622;2023-03-04T08:44:11;5.85;;;0.57;;
38130;SDS011;23947;51.894;4.622;2023-03-04T08:46:38;20.70;;;1.23;;
38130;SDS011;23947;51.894;4.622;2023-03-04T08:49:06;3.15;;;0.32;;
38130;SDS011;23947;51.894;4.622;2023-03-04T08:51:32;9.45;;;0.50;;
38130;SDS011;23947;51.894;4.622;2023-03-04T08:53:59;6.47;;;0.50;;
38130;SDS011;23947;51.894;4.622;2023-03-04T08:56:26;8.07;;;0.40;;
38130;SDS011;23947;51.894;4.622;2023-03-04T08:58:51;10.65;;;0.60;;
38130;SDS011;23947;51.894;4.622;2023-03-04T09:01:20;7.88;;;0.50;;
38130;SDS011;23947;51.894;4.622;2023-03-04T09:03:46;3.65;;;0.47;;
38130;SDS011;23947;51.894;4.622;2023-03-04T09:06:14;6.90;;;0.50;;
38130;SDS011;23947;51.894;4.622;2023-03-04T09:08:41;5.55;;;0.82;;
38130;SDS011;23947;51.894;4.622;2023-03-04T09:11:08;6.13;;;0.70;;
38130;SDS011;23947;51.894;4.622;2023-03-04T09:13:35;5.20;;;0.50;;
38130;SDS011;23947;51.894;4.622;2023-03-04T09:16:01;8.70;;;0.50;;
38130;SDS011;23947;51.894;4.622;2023-03-04T09:18:27;6.65;;;0.40;;
38130;SDS011;23947;51.894;4.622;2023-03-04T09:20:53;8.32;;;0.60;;
38130;SDS011;23947;51.894;4.622;2023-03-04T09:23:19;6.15;;;0.45;;
38130;SDS011;23947;51.894;4.622;2023-03-04T09:25:45;5.63;;;0.30;;
38130;SDS011;23947;51.894;4.622;2023-03-04T09:28:11;2.13;;;0.20;;
38130;SDS011;23947;51.894;4.622;2023-03-04T09:30:38;2.67;;;0.17;;
38130;SDS011;23947;51.894;4.622;2023-03-04T09:33:04;1.80;;;0.10;;
38130;SDS011;23947;51.894;4.622;2023-03-04T09:35:29;3.85;;;0.10;;
38130;SDS011;23947;51.894;4.622;2023-03-04T09:37:55;3.83;;;0.22;;
38130;SDS011;23947;51.894;4.622;2023-03-04T09:40:23;4.30;;;0.20;;
38130;SDS011;23947;51.894;4.622;2023-03-04T09:42:56;2.45;;;0.20;;
38130;SDS011;23947;51.894;4.622;2023-03-04T09:45:28;3.28;;;0.22;;
38130;SDS011;23947;51.894;4.622;2023-03-04T09:48:12;4.25;;;0.40;;
38130;SDS011;23947;51.894;4.622;2023-03-04T09:50:49;6.78;;;0.40;;
38130;SDS011;23947;51.894;4.622;2023-03-04T09:53:33;5.38;;;0.35;;
38130;SDS011;23947;51.894;4.622;2023-03-04T09:56:10;6.68;;;0.20;;
38130;SDS011;23947;51.894;4.622;2023-03-04T10:01:24;3.35;;;0.30;;
38130;SDS011;23947;51.894;4.622;2023-03-04T10:06:24;3.80;;;0.30;;
38130;SDS011;23947;51.894;4.622;2023-03-04T10:11:19;2.63;;;0.17;;
38130;SDS011;23947;51.894;4.622;2023-03-04T10:17:02;4.85;;;0.40;;
38130;SDS011;23947;51.894;4.622;2023-03-04T10:19:53;4.10;;;0.30;;
38130;SDS011;23947;51.894;4.622;2023-03-04T10:22:34;2.85;;;0.28;;
38130;SDS011;23947;51.894;4.622;2023-03-04T10:25:14;7.22;;;0.30;;
38130;SDS011;23947;51.894;4.622;2023-03-04T10:27:56;6.35;;;0.40;;
38130;SDS011;23947;51.894;4.622;2023-03-04T10:33:22;5.80;;;0.57;;
38130;SDS011;23947;51.894;4.622;2023-03-04T10:35:54;5.90;;;0.40;;
38130;SDS011;23947;51.894;4.622;2023-03-04T10:38:34;2.92;;;0.25;;
38130;SDS011;23947;51.894;4.622;2023-03-04T10:43:43;3.92;;;0.30;;
38130;SDS011;23947;51.894;4.622;2023-03-04T10:46:14;5.38;;;0.40;;
38130;SDS011;23947;51.894;4.622;2023-03-04T10:48:41;4.05;;;0.40;;
38130;SDS011;23947;51.894;4.622;2023-03-04T10:51:29;8.10;;;0.50;;
38130;SDS011;23947;51.894;4.622;2023-03-04T10:54:06;6.32;;;0.77;;
38130;SDS011;23947;51.894;4.622;2023-03-04T11:01:52;7.85;;;0.50;;
38130;SDS011;23947;51.894;4.622;2023-03-04T11:04:19;2.75;;;0.40;;
38130;SDS011;23947;51.894;4.622;2023-03-04T11:06:49;6.05;;;0.47;;
38130;SDS011;23947;51.894;4.622;2023-03-04T11:09:23;5.40;;;0.50;;
38130;SDS011;23947;51.894;4.622;2023-03-04T11:11:51;9.20;;;0.85;;
38130;SDS011;23947;51.894;4.622;2023-03-04T11:14:23;5.00;;;0.52;;
38130;SDS011;23947;51.894;4.622;2023-03-04T11:17:02;9.65;;;0.40;;
38130;SDS011;23947;51.894;4.622;2023-03-04T11:19:41;5.55;;;0.30;;
38130;SDS011;23947;51.894;4.622;2023-03-04T11:22:14;6.30;;;0.57;;
38130;SDS011;23947;51.894;4.622;2023-03-04T11:24:44;8.85;;;0.40;;
38130;SDS011;23947;51.894;4.622;2023-03-04T11:27:20;5.53;;;0.38;;
38130;SDS011;23947;51.894;4.622;2023-03-04T11:32:51;5.65;;;0.30;;
38130;SDS011;23947;51.894;4.622;2023-03-04T11:43:08;5.15;;;0.40;;
38130;SDS011;23947;51.894;4.622;2023-03-04T11:45:55;8.25;;;0.32;;
38130;SDS011;23947;51.894;4.622;2023-03-04T11:51:26;3.80;;;0.30;;
38130;SDS011;23947;51.894;4.622;2023-03-04T11:57:05;4.80;;;0.20;;
38130;SDS011;23947;51.894;4.622;2023-03-04T12:14:30;4.07;;;0.30;;
38130;SDS011;23947;51.894;4.622;2023-03-04T12:25:59;3.50;;;0.35;;
38130;SDS011;23947;51.894;4.622;2023-03-04T12:33:54;2.72;;;0.10;;
38130;SDS011;23947;51.894;4.622;2023-03-04T12:36:28;4.45;;;0.13;;
38130;SDS011;23947;51.894;4.622;2023-03-04T12:42:06;5.35;;;0.28;;
38130;SDS011;23947;51.894;4.622;2023-03-04T12:47:29;2.25;;;0.10;;
38130;SDS011;23947;51.894;4.622;2023-03-04T12:50:22;2.78;;;0.10;;
38130;SDS011;23947;51.894;4.622;2023-03-04T12:55:48;9.60;;;0.30;;
38130;SDS011;23947;51.894;4.622;2023-03-04T12:58:22;4.35;;;0.30;;
38130;SDS011;23947;51.894;4.622;2023-03-04T13:14:26;2.60;;;0.20;;
38130;SDS011;23947;51.894;4.622;2023-03-04T13:17:36;5.32;;;0.25;;
38130;SDS011;23947;51.894;4.622;2023-03-04T13:23:01;6.93;;;0.35;;
38130;SDS011;23947;51.894;4.622;2023-03-04T13:35:48;5.68;;;0.22;;
38130;SDS011;23947;51.894;4.622;2023-03-04T13:43:55;4.40;;;0.40;;
38130;SDS011;23947;51.894;4.622;2023-03-04T13:59:44;11.15;;;1.10;;
38130;SDS011;23947;51.894;4.622;2023-03-04T14:02:18;8.30;;;0.93;;
38130;SDS011;23947;51.894;4.622;2023-03-04T14:04:56;17.77;;;1.02;;
38130;SDS011;23947;51.894;4.622;2023-03-04T14:07:27;9.90;;;0.73;;
38130;SDS011;23947;51.894;4.622;2023-03-04T14:12:30;7.63;;;0.80;;
38130;SDS011;23947;51.894;4.622;2023-03-04T14:17:38;11.20;;;3.67;;
38130;SDS011;23947;51.894;4.622;2023-03-04T14:20:20;7.70;;;1.05;;
38130;SDS011;23947;51.894;4.622;2023-03-04T14:22:53;6.82;;;0.68;;
38130;SDS011;23947;51.894;4.622;2023-03-04T14:25:27;7.95;;;0.90;;
38130;SDS011;23947;51.894;4.622;2023-03-04T14:28:16;9.00;;;1.45;;
38130;SDS011;23947;51.894;4.622;2023-03-04T14:30:50;5.70;;;0.60;;
38130;SDS011;23947;51.894;4.622;2023-03-04T14:33:18;6.55;;;0.73;;
38130;SDS011;23947;51.894;4.622;2023-03-04T14:35:48;5.35;;;0.30;;
38130;SDS011;23947;51.894;4.622;2023-03-04T14:40:48;8.75;;;0.60;;
38130;SDS011;23947;51.894;4.622;2023-03-04T14:43:22;9.07;;;0.70;;
38130;SDS011;23947;51.894;4.622;2023-03-04T14:45:49;7.53;;;0.70;;
38130;SDS011;23947;51.894;4.622;2023-03-04T14:48:35;16.58;;;0.60;;
38130;SDS011;23947;51.894;4.622;2023-03-04T14:51:01;9.07;;;0.63;;
38130;SDS011;23947;51.894;4.622;2023-03-04T14:53:31;10.77;;;1.23;;
38130;SDS011;23947;51.894;4.622;2023-03-04T15:03:31;7.72;;;0.70;;
38130;SDS011;23947;51.894;4.622;2023-03-04T15:06:05;12.52;;;0.63;;
38130;SDS011;23947;51.894;4.622;2023-03-04T15:08:39;19.45;;;1.10;;
38130;SDS011;23947;51.894;4.622;2023-03-04T15:11:05;10.13;;;0.93;;
38130;SDS011;23947;51.894;4.622;2023-03-04T15:13:43;11.63;;;0.80;;
38130;SDS011;23947;51.894;4.622;2023-03-04T15:16:11;13.35;;;1.35;;
38130;SDS011;23947;51.894;4.622;2023-03-04T15:18:38;12.02;;;1.08;;
38130;SDS011;23947;51.894;4.622;2023-03-04T15:23:45;17.23;;;1.10;;
38130;SDS011;23947;51.894;4.622;2023-03-04T15:26:11;25.95;;;7.95;;
38130;SDS011;23947;51.894;4.622;2023-03-04T15:28:38;14.40;;;3.42;;
38130;SDS011;23947;51.894;4.622;2023-03-04T15:31:12;15.02;;;1.85;;
38130;SDS011;23947;51.894;4.622;2023-03-04T15:33:43;13.45;;;1.08;;
38130;SDS011;23947;51.894;4.622;2023-03-04T15:36:11;13.57;;;1.52;;
38130;SDS011;23947;51.894;4.622;2023-03-04T15:38:40;17.92;;;2.05;;
38130;SDS011;23947;51.894;4.622;2023-03-04T15:41:08;11.13;;;0.80;;
38130;SDS011;23947;51.894;4.622;2023-03-04T15:43:36;10.77;;;0.98;;
38130;SDS011;23947;51.894;4.622;2023-03-04T15:46:02;8.27;;;0.40;;
38130;SDS011;23947;51.894;4.622;2023-03-04T15:48:28;5.65;;;0.47;;
38130;SDS011;23947;51.894;4.622;2023-03-04T15:50:59;8.25;;;0.50;;
38130;SDS011;23947;51.894;4.622;2023-03-04T15:53:27;8.88;;;0.80;;
38130;SDS011;23947;51.894;4.622;2023-03-04T15:55:57;9.63;;;1.02;;
38130;SDS011;23947;51.894;4.622;2023-03-04T15:58:24;6.13;;;0.55;;
38130;SDS011;23947;51.894;4.622;2023-03-04T16:00:50;13.85;;;1.20;;
38130;SDS011;23947;51.894;4.622;2023-03-04T16:03:19;8.18;;;0.75;;
38130;SDS011;23947;51.894;4.622;2023-03-04T16:05:47;4.28;;;0.30;;
38130;SDS011;23947;51.894;4.622;2023-03-04T16:08:15;10.95;;;1.30;;
38130;SDS011;23947;51.894;4.622;2023-03-04T16:10:43;10.20;;;1.20;;
38130;SDS011;23947;51.894;4.622;2023-03-04T16:13:16;14.50;;;0.85;;
38130;SDS011;23947;51.894;4.622;2023-03-04T16:15:44;8.15;;;1.25;;
38130;SDS011;23947;51.894;4.622;2023-03-04T16:18:10;11.25;;;0.63;;
38130;SDS011;23947;51.894;4.622;2023-03-04T16:20:37;15.93;;;1.35;;
38130;SDS011;23947;51.894;4.622;2023-03-04T16:23:04;11.18;;;1.10;;
38130;SDS011;23947;51.894;4.622;2023-03-04T16:25:37;13.77;;;1.02;;
38130;SDS011;23947;51.894;4.622;2023-03-04T16:28:03;9.93;;;0.68;;
38130;SDS011;23947;51.894;4.622;2023-03-04T16:30:30;20.83;;;3.72;;
38130;SDS011;23947;51.894;4.622;2023-03-04T16:32:56;10.88;;;0.95;;
38130;SDS011;23947;51.894;4.622;2023-03-04T16:35:22;13.70;;;1.30;;
38130;SDS011;23947;51.894;4.622;2023-03-04T16:37:52;8.20;;;1.20;;
38130;SDS011;23947;51.894;4.622;2023-03-04T16:40:19;13.32;;;1.38;;
38130;SDS011;23947;51.894;4.622;2023-03-04T16:42:49;9.10;;;0.93;;
38130;SDS011;23947;51.894;4.622;2023-03-04T16:45:15;11.77;;;0.90;;
38130;SDS011;23947;51.894;4.622;2023-03-04T16:47:50;8.13;;;0.63;;
38130;SDS011;23947;51.894;4.622;2023-03-04T16:50:18;8.52;;;0.82;;
38130;SDS011;23947;51.894;4.622;2023-03-04T16:52:49;9.93;;;0.55;;
38130;SDS011;23947;51.894;4.622;2023-03-04T16:55:23;9.05;;;0.65;;
38130;SDS011;23947;51.894;4.622;2023-03-04T16:57:50;8.13;;;0.55;;
38130;SDS011;23947;51.894;4.622;2023-03-04T17:00:17;5.20;;;0.20;;
38130;SDS011;23947;51.894;4.622;2023-03-04T17:02:44;5.90;;;0.47;;
38130;SDS011;23947;51.894;4.622;2023-03-04T17:05:17;8.63;;;0.38;;
38130;SDS011;23947;51.894;4.622;2023-03-04T17:07:44;12.38;;;0.40;;